sensor_id;sensor_type;location;lat;lon;timestamp;P1;durP1;ratioP1;P2;durP2;ratioP2
25846;SDS011;13676;50.168;8.568;2023-04-24T00:00:49;1.75;;;1.10;;
25846;SDS011;13676;50.168;8.568;2023-04-24T00:05:48;2.25;;;1.25;;
25846;SDS011;13676;50.168;8.568;2023-04-24T00:08:14;4.22;;;1.45;;
25846;SDS011;13676;50.168;8.568;2023-04-24T00:10:39;2.65;;;1.27;;
25846;SDS011;13676;50.168;8.568;2023-04-24T00:13:05;1.42;;;1.00;;
25846;SDS011;13676;50.168;8.568;2023-04-24T00:15:30;4.38;;;1.10;;
25846;SDS011;13676;50.168;8.568;2023-04-24T00:17:56;2.10;;;1.10;;
25846;SDS011;13676;50.168;8.568;2023-04-24T00:20:21;3.88;;;1.13;;
25846;SDS011;13676;50.168;8.568;2023-04-24T00:22:47;1.77;;;1.08;;
25846;SDS011;13676;50.168;8.568;2023-04-24T00:25:12;3.22;;;1.00;;
25846;SDS011;13676;50.168;8.568;2023-04-24T00:27:38;0.80;;;0.80;;
25846;SDS011;13676;50.168;8.568;2023-04-24T00:30:03;1.42;;;0.90;;
25846;SDS011;13676;50.168;8.568;2023-04-24T00:32:29;1.55;;;1.02;;
25846;SDS011;13676;50.168;8.568;2023-04-24T00:34:55;2.90;;;0.85;;
25846;SDS011;13676;50.168;8.568;2023-04-24T00:37:20;3.90;;;1.00;;
25846;SDS011;13676;50.168;8.568;2023-04-24T00:39:45;1.38;;;0.98;;
25846;SDS011;13676;50.168;8.568;2023-04-24T00:42:11;4.00;;;0.98;;
25846;SDS011;13676;50.168;8.568;2023-04-24T00:44:36;2.67;;;1.10;;
25846;SDS011;13676;50.168;8.568;2023-04-24T00:47:02;2.65;;;1.00;;
25846;SDS011;13676;50.168;8.568;2023-04-24T00:49:27;3.03;;;1.00;;
25846;SDS011;13676;50.168;8.568;2023-04-24T00:51:53;2.08;;;0.90;;
25846;SDS011;13676;50.168;8.568;2023-04-24T00:54:19;4.68;;;1.20;;
25846;SDS011;13676;50.168;8.568;2023-04-24T00:56:44;2.58;;;1.20;;
25846;SDS011;13676;50.168;8.568;2023-04-24T00:59:11;1.88;;;1.20;;
25846;SDS011;13676;50.168;8.568;2023-04-24T01:01:37;2.58;;;1.30;;
25846;SDS011;13676;50.168;8.568;2023-04-24T01:04:07;2.15;;;1.10;;
25846;SDS011;13676;50.168;8.568;2023-04-24T01:06:33;2.35;;;1.05;;
25846;SDS011;13676;50.168;8.568;2023-04-24T01:08:58;2.78;;;1.27;;
25846;SDS011;13676;50.168;8.568;2023-04-24T01:11:25;2.97;;;1.05;;
25846;SDS011;13676;50.168;8.568;2023-04-24T01:13:51;3.05;;;1.10;;
25846;SDS011;13676;50.168;8.568;2023-04-24T01:16:17;3.50;;;1.25;;
25846;SDS011;13676;50.168;8.568;2023-04-24T01:21:10;2.67;;;1.02;;
25846;SDS011;13676;50.168;8.568;2023-04-24T01:23:38;5.47;;;1.30;;
25846;SDS011;13676;50.168;8.568;2023-04-24T01:26:04;2.20;;;1.20;;
25846;SDS011;13676;50.168;8.568;2023-04-24T01:28:29;3.53;;;1.20;;
25846;SDS011;13676;50.168;8.568;2023-04-24T01:30:55;4.05;;;1.73;;
25846;SDS011;13676;50.168;8.568;2023-04-24T01:33:20;2.85;;;1.40;;
25846;SDS011;13676;50.168;8.568;2023-04-24T01:35:46;5.43;;;1.58;;
25846;SDS011;13676;50.168;8.568;2023-04-24T01:38:12;4.75;;;1.50;;
25846;SDS011;13676;50.168;8.568;2023-04-24T01:40:37;2.92;;;1.60;;
25846;SDS011;13676;50.168;8.568;2023-04-24T01:43:03;3.60;;;1.38;;
25846;SDS011;13676;50.168;8.568;2023-04-24T01:45:28;3.60;;;1.70;;
25846;SDS011;13676;50.168;8.568;2023-04-24T01:47:54;5.32;;;1.23;;
25846;SDS011;13676;50.168;8.568;2023-04-24T01:50:19;3.83;;;1.30;;
25846;SDS011;13676;50.168;8.568;2023-04-24T01:52:44;2.65;;;1.20;;
25846;SDS011;13676;50.168;8.568;2023-04-24T01:55:10;4.22;;;1.65;;
25846;SDS011;13676;50.168;8.568;2023-04-24T01:57:35;3.22;;;1.48;;
25846;SDS011;13676;50.168;8.568;2023-04-24T02:00:01;2.78;;;1.52;;
25846;SDS011;13676;50.168;8.568;2023-04-24T02:02:29;2.42;;;1.42;;
25846;SDS011;13676;50.168;8.568;2023-04-24T02:04:55;4.22;;;1.73;;
25846;SDS011;13676;50.168;8.568;2023-04-24T02:07:20;3.10;;;1.48;;
25846;SDS011;13676;50.168;8.568;2023-04-24T02:09:45;1.95;;;1.30;;
25846;SDS011;13676;50.168;8.568;2023-04-24T02:12:11;2.03;;;1.30;;
25846;SDS011;13676;50.168;8.568;2023-04-24T02:14:36;2.55;;;1.30;;
25846;SDS011;13676;50.168;8.568;2023-04-24T02:17:01;4.13;;;1.60;;
25846;SDS011;13676;50.168;8.568;2023-04-24T02:19:27;3.40;;;1.40;;
25846;SDS011;13676;50.168;8.568;2023-04-24T02:21:52;5.75;;;1.60;;
25846;SDS011;13676;50.168;8.568;2023-04-24T02:24:17;6.97;;;1.70;;
25846;SDS011;13676;50.168;8.568;2023-04-24T02:26:43;5.47;;;1.65;;
25846;SDS011;13676;50.168;8.568;2023-04-24T02:29:08;4.32;;;1.50;;
25846;SDS011;13676;50.168;8.568;2023-04-24T02:31:33;2.00;;;1.40;;
25846;SDS011;13676;50.168;8.568;2023-04-24T02:33:59;3.67;;;1.40;;
25846;SDS011;13676;50.168;8.568;2023-04-24T02:36:24;3.25;;;1.27;;
25846;SDS011;13676;50.168;8.568;2023-04-24T02:38:52;4.13;;;1.70;;
25846;SDS011;13676;50.168;8.568;2023-04-24T02:41:18;4.03;;;1.40;;
25846;SDS011;13676;50.168;8.568;2023-04-24T02:43:43;5.00;;;1.45;;
25846;SDS011;13676;50.168;8.568;2023-04-24T02:46:09;2.63;;;1.27;;
25846;SDS011;13676;50.168;8.568;2023-04-24T02:48:34;3.38;;;1.30;;
25846;SDS011;13676;50.168;8.568;2023-04-24T02:50:59;5.80;;;1.63;;
25846;SDS011;13676;50.168;8.568;2023-04-24T02:53:25;5.40;;;1.35;;
25846;SDS011;13676;50.168;8.568;2023-04-24T02:55:50;3.70;;;1.25;;
25846;SDS011;13676;50.168;8.568;2023-04-24T02:58:15;7.97;;;1.48;;
25846;SDS011;13676;50.168;8.568;2023-04-24T03:00:42;1.55;;;0.90;;
25846;SDS011;13676;50.168;8.568;2023-04-24T03:03:08;2.63;;;1.05;;
25846;SDS011;13676;50.168;8.568;2023-04-24T03:05:33;4.00;;;1.45;;
25846;SDS011;13676;50.168;8.568;2023-04-24T03:07:59;1.92;;;1.10;;
25846;SDS011;13676;50.168;8.568;2023-04-24T03:10:25;4.63;;;1.30;;
25846;SDS011;13676;50.168;8.568;2023-04-24T03:12:50;5.03;;;1.13;;
25846;SDS011;13676;50.168;8.568;2023-04-24T03:15:15;4.13;;;1.10;;
25846;SDS011;13676;50.168;8.568;2023-04-24T03:17:41;4.05;;;1.10;;
25846;SDS011;13676;50.168;8.568;2023-04-24T03:20:06;1.90;;;1.10;;
25846;SDS011;13676;50.168;8.568;2023-04-24T03:22:34;2.20;;;1.15;;
25846;SDS011;13676;50.168;8.568;2023-04-24T03:24:59;2.75;;;1.30;;
25846;SDS011;13676;50.168;8.568;2023-04-24T03:27:25;4.38;;;1.00;;
25846;SDS011;13676;50.168;8.568;2023-04-24T03:29:51;2.90;;;1.00;;
25846;SDS011;13676;50.168;8.568;2023-04-24T03:32:23;2.83;;;1.10;;
25846;SDS011;13676;50.168;8.568;2023-04-24T03:34:48;3.83;;;1.00;;
25846;SDS011;13676;50.168;8.568;2023-04-24T03:37:15;2.13;;;0.82;;
25846;SDS011;13676;50.168;8.568;2023-04-24T03:39:40;1.38;;;0.90;;
25846;SDS011;13676;50.168;8.568;2023-04-24T03:42:06;2.17;;;0.82;;
25846;SDS011;13676;50.168;8.568;2023-04-24T03:44:31;3.15;;;1.15;;
25846;SDS011;13676;50.168;8.568;2023-04-24T03:46:57;4.38;;;1.17;;
25846;SDS011;13676;50.168;8.568;2023-04-24T03:49:23;4.53;;;1.10;;
25846;SDS011;13676;50.168;8.568;2023-04-24T03:51:48;2.03;;;0.75;;
25846;SDS011;13676;50.168;8.568;2023-04-24T03:54:14;1.50;;;0.88;;
25846;SDS011;13676;50.168;8.568;2023-04-24T03:56:39;0.98;;;0.85;;
25846;SDS011;13676;50.168;8.568;2023-04-24T03:59:04;2.00;;;1.00;;
25846;SDS011;13676;50.168;8.568;2023-04-24T04:01:29;2.15;;;1.17;;
25846;SDS011;13676;50.168;8.568;2023-04-24T04:03:55;1.52;;;0.85;;
25846;SDS011;13676;50.168;8.568;2023-04-24T04:06:21;2.05;;;1.00;;
25846;SDS011;13676;50.168;8.568;2023-04-24T04:08:46;3.92;;;1.33;;
25846;SDS011;13676;50.168;8.568;2023-04-24T04:11:12;2.38;;;1.23;;
25846;SDS011;13676;50.168;8.568;2023-04-24T04:13:37;2.25;;;1.10;;
25846;SDS011;13676;50.168;8.568;2023-04-24T04:16:03;2.55;;;1.13;;
25846;SDS011;13676;50.168;8.568;2023-04-24T04:18:28;5.63;;;1.40;;
25846;SDS011;13676;50.168;8.568;2023-04-24T04:20:53;1.73;;;0.90;;
25846;SDS011;13676;50.168;8.568;2023-04-24T04:23:19;1.75;;;1.00;;
25846;SDS011;13676;50.168;8.568;2023-04-24T04:25:44;4.43;;;0.98;;
25846;SDS011;13676;50.168;8.568;2023-04-24T04:28:09;3.35;;;1.10;;
25846;SDS011;13676;50.168;8.568;2023-04-24T04:30:35;2.58;;;1.02;;
25846;SDS011;13676;50.168;8.568;2023-04-24T04:33:03;2.90;;;1.38;;
25846;SDS011;13676;50.168;8.568;2023-04-24T04:35:28;2.53;;;1.20;;
25846;SDS011;13676;50.168;8.568;2023-04-24T04:37:53;4.55;;;1.20;;
25846;SDS011;13676;50.168;8.568;2023-04-24T04:40:19;1.13;;;1.02;;
25846;SDS011;13676;50.168;8.568;2023-04-24T04:42:44;2.08;;;1.00;;
25846;SDS011;13676;50.168;8.568;2023-04-24T04:45:11;2.50;;;1.08;;
25846;SDS011;13676;50.168;8.568;2023-04-24T04:47:36;2.08;;;1.20;;
25846;SDS011;13676;50.168;8.568;2023-04-24T04:50:02;1.38;;;1.10;;
25846;SDS011;13676;50.168;8.568;2023-04-24T04:52:28;3.35;;;1.42;;
25846;SDS011;13676;50.168;8.568;2023-04-24T04:54:54;3.00;;;0.90;;
25846;SDS011;13676;50.168;8.568;2023-04-24T04:57:20;2.03;;;1.30;;
25846;SDS011;13676;50.168;8.568;2023-04-24T04:59:46;1.45;;;1.00;;
25846;SDS011;13676;50.168;8.568;2023-04-24T05:02:11;1.98;;;1.60;;
25846;SDS011;13676;50.168;8.568;2023-04-24T05:04:37;1.15;;;1.00;;
25846;SDS011;13676;50.168;8.568;2023-04-24T05:07:02;1.60;;;1.10;;
25846;SDS011;13676;50.168;8.568;2023-04-24T05:09:28;3.17;;;1.00;;
25846;SDS011;13676;50.168;8.568;2023-04-24T05:11:54;1.30;;;0.90;;
25846;SDS011;13676;50.168;8.568;2023-04-24T05:14:20;1.73;;;1.00;;
25846;SDS011;13676;50.168;8.568;2023-04-24T05:16:45;3.75;;;1.20;;
25846;SDS011;13676;50.168;8.568;2023-04-24T05:19:11;1.73;;;0.90;;
25846;SDS011;13676;50.168;8.568;2023-04-24T05:21:39;3.20;;;1.00;;
25846;SDS011;13676;50.168;8.568;2023-04-24T05:24:05;1.25;;;1.10;;
25846;SDS011;13676;50.168;8.568;2023-04-24T05:26:30;1.38;;;1.20;;
25846;SDS011;13676;50.168;8.568;2023-04-24T05:28:56;3.33;;;1.30;;
25846;SDS011;13676;50.168;8.568;2023-04-24T05:31:21;1.83;;;1.00;;
25846;SDS011;13676;50.168;8.568;2023-04-24T05:33:46;1.85;;;1.10;;
25846;SDS011;13676;50.168;8.568;2023-04-24T05:36:12;2.30;;;1.23;;
25846;SDS011;13676;50.168;8.568;2023-04-24T05:38:37;2.70;;;1.27;;
25846;SDS011;13676;50.168;8.568;2023-04-24T05:41:03;3.47;;;1.58;;
25846;SDS011;13676;50.168;8.568;2023-04-24T05:43:28;2.40;;;1.80;;
25846;SDS011;13676;50.168;8.568;2023-04-24T05:45:53;3.03;;;1.70;;
25846;SDS011;13676;50.168;8.568;2023-04-24T05:48:19;4.18;;;1.95;;
25846;SDS011;13676;50.168;8.568;2023-04-24T05:50:44;1.90;;;1.67;;
25846;SDS011;13676;50.168;8.568;2023-04-24T05:53:10;2.58;;;1.60;;
25846;SDS011;13676;50.168;8.568;2023-04-24T05:55:36;2.28;;;1.92;;
25846;SDS011;13676;50.168;8.568;2023-04-24T05:58:01;4.07;;;1.73;;
25846;SDS011;13676;50.168;8.568;2023-04-24T06:00:27;3.83;;;2.47;;
25846;SDS011;13676;50.168;8.568;2023-04-24T06:02:53;3.80;;;2.40;;
25846;SDS011;13676;50.168;8.568;2023-04-24T06:05:19;4.03;;;2.40;;
25846;SDS011;13676;50.168;8.568;2023-04-24T06:07:44;2.22;;;1.85;;
25846;SDS011;13676;50.168;8.568;2023-04-24T06:10:09;8.82;;;2.60;;
25846;SDS011;13676;50.168;8.568;2023-04-24T06:12:35;3.13;;;2.10;;
25846;SDS011;13676;50.168;8.568;2023-04-24T06:15:01;6.07;;;2.70;;
25846;SDS011;13676;50.168;8.568;2023-04-24T06:17:27;4.25;;;2.35;;
25846;SDS011;13676;50.168;8.568;2023-04-24T06:19:52;2.53;;;2.33;;
25846;SDS011;13676;50.168;8.568;2023-04-24T06:22:18;5.43;;;2.38;;
25846;SDS011;13676;50.168;8.568;2023-04-24T06:24:43;4.22;;;2.75;;
25846;SDS011;13676;50.168;8.568;2023-04-24T06:27:08;7.80;;;2.70;;
25846;SDS011;13676;50.168;8.568;2023-04-24T06:29:34;4.00;;;2.50;;
25846;SDS011;13676;50.168;8.568;2023-04-24T06:32:00;3.80;;;2.25;;
25846;SDS011;13676;50.168;8.568;2023-04-24T06:34:26;7.95;;;2.83;;
25846;SDS011;13676;50.168;8.568;2023-04-24T06:36:51;6.68;;;2.95;;
25846;SDS011;13676;50.168;8.568;2023-04-24T06:39:16;5.07;;;3.00;;
25846;SDS011;13676;50.168;8.568;2023-04-24T06:41:42;4.45;;;2.67;;
25846;SDS011;13676;50.168;8.568;2023-04-24T06:44:07;4.95;;;2.92;;
25846;SDS011;13676;50.168;8.568;2023-04-24T06:46:32;5.32;;;3.40;;
25846;SDS011;13676;50.168;8.568;2023-04-24T06:48:58;4.93;;;2.63;;
25846;SDS011;13676;50.168;8.568;2023-04-24T06:51:23;3.05;;;2.53;;
25846;SDS011;13676;50.168;8.568;2023-04-24T06:53:49;4.10;;;2.80;;
25846;SDS011;13676;50.168;8.568;2023-04-24T06:56:16;3.40;;;2.30;;
25846;SDS011;13676;50.168;8.568;2023-04-24T06:58:41;3.75;;;2.47;;
25846;SDS011;13676;50.168;8.568;2023-04-24T07:01:06;3.25;;;2.35;;
25846;SDS011;13676;50.168;8.568;2023-04-24T07:03:32;4.32;;;2.72;;
25846;SDS011;13676;50.168;8.568;2023-04-24T07:05:57;5.25;;;2.45;;
25846;SDS011;13676;50.168;8.568;2023-04-24T07:08:23;3.05;;;2.65;;
25846;SDS011;13676;50.168;8.568;2023-04-24T07:10:49;4.13;;;2.80;;
25846;SDS011;13676;50.168;8.568;2023-04-24T07:13:15;3.33;;;2.30;;
25846;SDS011;13676;50.168;8.568;2023-04-24T07:15:41;3.67;;;2.20;;
25846;SDS011;13676;50.168;8.568;2023-04-24T07:18:06;5.43;;;2.40;;
25846;SDS011;13676;50.168;8.568;2023-04-24T07:20:35;3.58;;;2.00;;
25846;SDS011;13676;50.168;8.568;2023-04-24T07:23:00;7.63;;;2.25;;
25846;SDS011;13676;50.168;8.568;2023-04-24T07:25:25;3.63;;;2.08;;
25846;SDS011;13676;50.168;8.568;2023-04-24T07:27:51;3.45;;;1.90;;
25846;SDS011;13676;50.168;8.568;2023-04-24T07:30:17;4.97;;;2.40;;
25846;SDS011;13676;50.168;8.568;2023-04-24T07:32:42;4.20;;;2.33;;
25846;SDS011;13676;50.168;8.568;2023-04-24T07:35:08;3.15;;;2.08;;
25846;SDS011;13676;50.168;8.568;2023-04-24T07:37:34;4.07;;;2.27;;
25846;SDS011;13676;50.168;8.568;2023-04-24T07:40:00;3.45;;;2.00;;
25846;SDS011;13676;50.168;8.568;2023-04-24T07:42:25;4.03;;;2.00;;
25846;SDS011;13676;50.168;8.568;2023-04-24T07:44:50;2.63;;;1.95;;
25846;SDS011;13676;50.168;8.568;2023-04-24T07:47:16;3.30;;;2.35;;
25846;SDS011;13676;50.168;8.568;2023-04-24T07:49:41;3.20;;;2.17;;
25846;SDS011;13676;50.168;8.568;2023-04-24T07:52:07;3.03;;;2.10;;
25846;SDS011;13676;50.168;8.568;2023-04-24T07:54:33;4.97;;;2.42;;
25846;SDS011;13676;50.168;8.568;2023-04-24T07:56:58;3.45;;;1.92;;
25846;SDS011;13676;50.168;8.568;2023-04-24T07:59:23;4.10;;;1.90;;
25846;SDS011;13676;50.168;8.568;2023-04-24T08:01:50;3.65;;;1.80;;
25846;SDS011;13676;50.168;8.568;2023-04-24T08:04:15;6.38;;;2.97;;
25846;SDS011;13676;50.168;8.568;2023-04-24T08:06:41;2.42;;;1.75;;
25846;SDS011;13676;50.168;8.568;2023-04-24T08:09:06;3.17;;;2.10;;
25846;SDS011;13676;50.168;8.568;2023-04-24T08:11:32;6.82;;;2.75;;
25846;SDS011;13676;50.168;8.568;2023-04-24T08:13:57;3.95;;;2.22;;
25846;SDS011;13676;50.168;8.568;2023-04-24T08:16:23;5.38;;;2.10;;
25846;SDS011;13676;50.168;8.568;2023-04-24T08:18:51;4.53;;;1.92;;
25846;SDS011;13676;50.168;8.568;2023-04-24T08:21:17;5.57;;;2.42;;
25846;SDS011;13676;50.168;8.568;2023-04-24T08:23:44;2.53;;;1.70;;
25846;SDS011;13676;50.168;8.568;2023-04-24T08:26:10;4.53;;;2.30;;
25846;SDS011;13676;50.168;8.568;2023-04-24T08:28:36;3.70;;;1.92;;
25846;SDS011;13676;50.168;8.568;2023-04-24T08:31:02;4.85;;;2.08;;
25846;SDS011;13676;50.168;8.568;2023-04-24T08:33:27;3.30;;;2.08;;
25846;SDS011;13676;50.168;8.568;2023-04-24T08:35:59;4.75;;;1.88;;
25846;SDS011;13676;50.168;8.568;2023-04-24T08:38:25;4.50;;;2.30;;
25846;SDS011;13676;50.168;8.568;2023-04-24T08:40:51;3.25;;;1.92;;
25846;SDS011;13676;50.168;8.568;2023-04-24T08:43:16;4.07;;;2.15;;
25846;SDS011;13676;50.168;8.568;2023-04-24T08:45:42;4.60;;;2.30;;
25846;SDS011;13676;50.168;8.568;2023-04-24T08:48:07;4.90;;;2.22;;
25846;SDS011;13676;50.168;8.568;2023-04-24T08:50:33;3.67;;;2.10;;
25846;SDS011;13676;50.168;8.568;2023-04-24T08:52:59;2.75;;;1.75;;
25846;SDS011;13676;50.168;8.568;2023-04-24T08:55:26;4.30;;;2.53;;
25846;SDS011;13676;50.168;8.568;2023-04-24T08:57:52;2.90;;;2.00;;
25846;SDS011;13676;50.168;8.568;2023-04-24T09:00:18;5.63;;;1.65;;
25846;SDS011;13676;50.168;8.568;2023-04-24T09:02:45;4.45;;;2.10;;
25846;SDS011;13676;50.168;8.568;2023-04-24T09:05:12;1.90;;;1.60;;
25846;SDS011;13676;50.168;8.568;2023-04-24T09:07:38;2.45;;;1.52;;
25846;SDS011;13676;50.168;8.568;2023-04-24T09:10:04;4.05;;;1.90;;
25846;SDS011;13676;50.168;8.568;2023-04-24T09:12:31;2.83;;;1.88;;
25846;SDS011;13676;50.168;8.568;2023-04-24T09:14:57;4.28;;;2.20;;
25846;SDS011;13676;50.168;8.568;2023-04-24T09:17:24;3.05;;;1.98;;
25846;SDS011;13676;50.168;8.568;2023-04-24T09:19:51;2.30;;;1.90;;
25846;SDS011;13676;50.168;8.568;2023-04-24T09:22:17;4.32;;;1.60;;
25846;SDS011;13676;50.168;8.568;2023-04-24T09:24:42;2.28;;;1.77;;
25846;SDS011;13676;50.168;8.568;2023-04-24T09:27:07;3.95;;;2.30;;
25846;SDS011;13676;50.168;8.568;2023-04-24T09:29:36;2.92;;;1.98;;
25846;SDS011;13676;50.168;8.568;2023-04-24T09:32:17;3.35;;;1.90;;
25846;SDS011;13676;50.168;8.568;2023-04-24T09:34:43;3.53;;;2.10;;
25846;SDS011;13676;50.168;8.568;2023-04-24T09:37:12;7.30;;;2.03;;
25846;SDS011;13676;50.168;8.568;2023-04-24T09:40:14;4.10;;;1.88;;
25846;SDS011;13676;50.168;8.568;2023-04-24T09:42:44;3.10;;;1.70;;
25846;SDS011;13676;50.168;8.568;2023-04-24T09:47:46;2.33;;;1.65;;
25846;SDS011;13676;50.168;8.568;2023-04-24T09:50:16;2.53;;;1.92;;
25846;SDS011;13676;50.168;8.568;2023-04-24T09:52:43;4.00;;;1.80;;
25846;SDS011;13676;50.168;8.568;2023-04-24T09:55:19;5.75;;;1.95;;
25846;SDS011;13676;50.168;8.568;2023-04-24T10:00:29;6.78;;;2.05;;
25846;SDS011;13676;50.168;8.568;2023-04-24T10:05:54;4.00;;;1.98;;
25846;SDS011;13676;50.168;8.568;2023-04-24T10:08:13;4.25;;;2.00;;
25846;SDS011;13676;50.168;8.568;2023-04-24T10:10:39;3.00;;;1.88;;
25846;SDS011;13676;50.168;8.568;2023-04-24T10:13:09;3.85;;;1.77;;
25846;SDS011;13676;50.168;8.568;2023-04-24T10:15:35;2.67;;;2.10;;
25846;SDS011;13676;50.168;8.568;2023-04-24T10:18:01;6.63;;;2.20;;
25846;SDS011;13676;50.168;8.568;2023-04-24T10:20:30;2.55;;;2.00;;
25846;SDS011;13676;50.168;8.568;2023-04-24T10:22:56;3.55;;;1.60;;
25846;SDS011;13676;50.168;8.568;2023-04-24T10:25:23;1.98;;;1.63;;
25846;SDS011;13676;50.168;8.568;2023-04-24T10:27:50;2.53;;;1.90;;
25846;SDS011;13676;50.168;8.568;2023-04-24T10:30:16;2.63;;;1.60;;
25846;SDS011;13676;50.168;8.568;2023-04-24T10:32:42;3.67;;;2.22;;
25846;SDS011;13676;50.168;8.568;2023-04-24T10:35:08;2.10;;;1.80;;
25846;SDS011;13676;50.168;8.568;2023-04-24T10:37:36;2.20;;;1.93;;
25846;SDS011;13676;50.168;8.568;2023-04-24T10:40:03;3.08;;;1.60;;
25846;SDS011;13676;50.168;8.568;2023-04-24T10:42:31;2.63;;;1.80;;
25846;SDS011;13676;50.168;8.568;2023-04-24T10:44:56;2.42;;;1.80;;
25846;SDS011;13676;50.168;8.568;2023-04-24T10:47:23;7.47;;;2.28;;
25846;SDS011;13676;50.168;8.568;2023-04-24T10:49:50;4.10;;;2.20;;
25846;SDS011;13676;50.168;8.568;2023-04-24T10:52:15;5.35;;;2.30;;
25846;SDS011;13676;50.168;8.568;2023-04-24T10:54:45;4.60;;;1.95;;
25846;SDS011;13676;50.168;8.568;2023-04-24T10:59:47;3.38;;;2.40;;
25846;SDS011;13676;50.168;8.568;2023-04-24T11:02:14;2.63;;;2.20;;
25846;SDS011;13676;50.168;8.568;2023-04-24T11:04:40;5.25;;;2.30;;
25846;SDS011;13676;50.168;8.568;2023-04-24T11:07:07;2.33;;;1.80;;
25846;SDS011;13676;50.168;8.568;2023-04-24T11:09:34;2.22;;;1.83;;
25846;SDS011;13676;50.168;8.568;2023-04-24T11:12:05;5.82;;;2.38;;
25846;SDS011;13676;50.168;8.568;2023-04-24T11:17:28;3.95;;;1.77;;
25846;SDS011;13676;50.168;8.568;2023-04-24T11:19:54;4.53;;;1.95;;
25846;SDS011;13676;50.168;8.568;2023-04-24T11:22:26;2.33;;;1.65;;
25846;SDS011;13676;50.168;8.568;2023-04-24T11:27:20;2.17;;;1.33;;
25846;SDS011;13676;50.168;8.568;2023-04-24T11:32:24;1.63;;;1.02;;
25846;SDS011;13676;50.168;8.568;2023-04-24T11:34:51;1.77;;;1.45;;
25846;SDS011;13676;50.168;8.568;2023-04-24T11:37:21;1.30;;;1.17;;
25846;SDS011;13676;50.168;8.568;2023-04-24T11:39:49;2.20;;;1.40;;
25846;SDS011;13676;50.168;8.568;2023-04-24T11:42:15;1.10;;;1.00;;
25846;SDS011;13676;50.168;8.568;2023-04-24T11:44:41;1.80;;;1.05;;
25846;SDS011;13676;50.168;8.568;2023-04-24T11:47:07;2.13;;;0.82;;
25846;SDS011;13676;50.168;8.568;2023-04-24T11:49:33;1.63;;;0.90;;
25846;SDS011;13676;50.168;8.568;2023-04-24T11:52:01;0.95;;;0.90;;
25846;SDS011;13676;50.168;8.568;2023-04-24T11:54:27;1.40;;;1.10;;
25846;SDS011;13676;50.168;8.568;2023-04-24T11:56:52;1.20;;;1.10;;
25846;SDS011;13676;50.168;8.568;2023-04-24T11:59:18;1.23;;;0.98;;
25846;SDS011;13676;50.168;8.568;2023-04-24T12:01:46;1.23;;;1.13;;
25846;SDS011;13676;50.168;8.568;2023-04-24T12:04:13;1.95;;;1.40;;
25846;SDS011;13676;50.168;8.568;2023-04-24T12:06:39;1.75;;;1.30;;
25846;SDS011;13676;50.168;8.568;2023-04-24T12:09:04;1.30;;;1.10;;
25846;SDS011;13676;50.168;8.568;2023-04-24T12:11:30;2.35;;;1.58;;
25846;SDS011;13676;50.168;8.568;2023-04-24T12:13:55;1.75;;;1.30;;
25846;SDS011;13676;50.168;8.568;2023-04-24T12:16:21;3.75;;;1.85;;
25846;SDS011;13676;50.168;8.568;2023-04-24T12:18:50;4.20;;;2.00;;
25846;SDS011;13676;50.168;8.568;2023-04-24T12:21:20;2.92;;;1.60;;
25846;SDS011;13676;50.168;8.568;2023-04-24T12:23:46;2.78;;;2.05;;
25846;SDS011;13676;50.168;8.568;2023-04-24T12:26:15;2.60;;;1.90;;
25846;SDS011;13676;50.168;8.568;2023-04-24T12:28:42;3.13;;;1.88;;
25846;SDS011;13676;50.168;8.568;2023-04-24T12:31:08;3.30;;;1.75;;
25846;SDS011;13676;50.168;8.568;2023-04-24T12:33:34;2.72;;;1.70;;
25846;SDS011;13676;50.168;8.568;2023-04-24T12:36:00;2.33;;;1.65;;
25846;SDS011;13676;50.168;8.568;2023-04-24T12:38:27;4.78;;;2.00;;
25846;SDS011;13676;50.168;8.568;2023-04-24T12:41:04;3.28;;;2.30;;
25846;SDS011;13676;50.168;8.568;2023-04-24T12:43:33;4.88;;;1.98;;
25846;SDS011;13676;50.168;8.568;2023-04-24T12:45:59;2.53;;;2.10;;
25846;SDS011;13676;50.168;8.568;2023-04-24T12:48:27;3.50;;;2.10;;
25846;SDS011;13676;50.168;8.568;2023-04-24T12:50:53;4.15;;;2.55;;
25846;SDS011;13676;50.168;8.568;2023-04-24T12:53:18;2.20;;;2.00;;
25846;SDS011;13676;50.168;8.568;2023-04-24T12:55:44;2.53;;;2.22;;
25846;SDS011;13676;50.168;8.568;2023-04-24T12:58:10;3.63;;;2.50;;
25846;SDS011;13676;50.168;8.568;2023-04-24T13:00:35;4.07;;;2.45;;
25846;SDS011;13676;50.168;8.568;2023-04-24T13:03:01;5.05;;;2.75;;
25846;SDS011;13676;50.168;8.568;2023-04-24T13:05:26;2.83;;;2.17;;
25846;SDS011;13676;50.168;8.568;2023-04-24T13:07:52;2.55;;;2.35;;
25846;SDS011;13676;50.168;8.568;2023-04-24T13:10:17;4.68;;;2.20;;
25846;SDS011;13676;50.168;8.568;2023-04-24T13:12:44;3.78;;;2.40;;
25846;SDS011;13676;50.168;8.568;2023-04-24T13:15:11;3.67;;;2.60;;
25846;SDS011;13676;50.168;8.568;2023-04-24T13:17:36;5.70;;;2.40;;
25846;SDS011;13676;50.168;8.568;2023-04-24T13:20:02;5.03;;;2.60;;
25846;SDS011;13676;50.168;8.568;2023-04-24T13:22:27;3.42;;;2.35;;
25846;SDS011;13676;50.168;8.568;2023-04-24T13:24:53;3.00;;;2.28;;
25846;SDS011;13676;50.168;8.568;2023-04-24T13:27:18;2.88;;;1.92;;
25846;SDS011;13676;50.168;8.568;2023-04-24T13:29:43;5.90;;;2.80;;
25846;SDS011;13676;50.168;8.568;2023-04-24T13:32:09;6.05;;;2.70;;
25846;SDS011;13676;50.168;8.568;2023-04-24T13:34:35;4.72;;;2.85;;
25846;SDS011;13676;50.168;8.568;2023-04-24T13:37:00;5.72;;;2.70;;
25846;SDS011;13676;50.168;8.568;2023-04-24T13:39:26;5.03;;;2.67;;
25846;SDS011;13676;50.168;8.568;2023-04-24T13:41:52;5.00;;;2.75;;
25846;SDS011;13676;50.168;8.568;2023-04-24T13:44:18;7.28;;;2.53;;
25846;SDS011;13676;50.168;8.568;2023-04-24T13:46:45;6.13;;;2.58;;
25846;SDS011;13676;50.168;8.568;2023-04-24T13:49:14;4.13;;;2.78;;
25846;SDS011;13676;50.168;8.568;2023-04-24T13:51:40;5.43;;;2.78;;
25846;SDS011;13676;50.168;8.568;2023-04-24T13:54:06;3.30;;;2.35;;
25846;SDS011;13676;50.168;8.568;2023-04-24T13:56:31;4.18;;;2.58;;
25846;SDS011;13676;50.168;8.568;2023-04-24T13:58:56;3.40;;;2.22;;
25846;SDS011;13676;50.168;8.568;2023-04-24T14:01:22;3.47;;;2.53;;
25846;SDS011;13676;50.168;8.568;2023-04-24T14:03:51;5.68;;;2.63;;
25846;SDS011;13676;50.168;8.568;2023-04-24T14:06:17;10.13;;;2.53;;
25846;SDS011;13676;50.168;8.568;2023-04-24T14:08:43;5.20;;;2.47;;
25846;SDS011;13676;50.168;8.568;2023-04-24T14:11:09;6.82;;;2.53;;
25846;SDS011;13676;50.168;8.568;2023-04-24T14:13:35;4.18;;;2.53;;
25846;SDS011;13676;50.168;8.568;2023-04-24T14:16:01;5.03;;;2.00;;
25846;SDS011;13676;50.168;8.568;2023-04-24T14:18:26;4.72;;;1.98;;
25846;SDS011;13676;50.168;8.568;2023-04-24T14:20:52;5.70;;;2.60;;
25846;SDS011;13676;50.168;8.568;2023-04-24T14:23:17;6.63;;;2.88;;
25846;SDS011;13676;50.168;8.568;2023-04-24T14:25:43;4.90;;;2.10;;
25846;SDS011;13676;50.168;8.568;2023-04-24T14:28:09;5.70;;;2.63;;
25846;SDS011;13676;50.168;8.568;2023-04-24T14:30:34;4.35;;;2.17;;
25846;SDS011;13676;50.168;8.568;2023-04-24T14:33:02;3.58;;;2.10;;
25846;SDS011;13676;50.168;8.568;2023-04-24T14:35:28;3.30;;;1.63;;
25846;SDS011;13676;50.168;8.568;2023-04-24T14:37:54;3.72;;;2.05;;
25846;SDS011;13676;50.168;8.568;2023-04-24T14:40:19;4.80;;;2.05;;
25846;SDS011;13676;50.168;8.568;2023-04-24T14:42:45;4.63;;;2.00;;
25846;SDS011;13676;50.168;8.568;2023-04-24T14:45:10;5.57;;;2.35;;
25846;SDS011;13676;50.168;8.568;2023-04-24T14:47:36;3.10;;;2.30;;
25846;SDS011;13676;50.168;8.568;2023-04-24T14:50:02;4.88;;;2.10;;
25846;SDS011;13676;50.168;8.568;2023-04-24T14:52:27;3.97;;;2.15;;
25846;SDS011;13676;50.168;8.568;2023-04-24T14:54:53;4.53;;;1.73;;
25846;SDS011;13676;50.168;8.568;2023-04-24T14:57:18;4.00;;;1.67;;
25846;SDS011;13676;50.168;8.568;2023-04-24T14:59:43;2.78;;;1.63;;
25846;SDS011;13676;50.168;8.568;2023-04-24T15:02:09;4.75;;;1.70;;
25846;SDS011;13676;50.168;8.568;2023-04-24T15:04:34;3.70;;;2.03;;